ニノイ・アキノ国際空港 の過去48時間の天気

ニノイ・アキノ国際空港 (Ninoy Aquino Inter-National Airport)

現在時刻: 9/16 11:04 PST (9/16 03:04 UTC) 以下の時間は現地時間です。

過去48時間のMETAR気象情報
時間 風向 風速(m/s) 視程 気温(℃) 湿度(%) 気圧(hPa) 天気現象
16 10:00 西 3 9000m 27 94 1007 弱い雨
16 09:00 西 5 8000m 26 94 1008 弱い雨 ひょう
16 08:00 西南西 4 2500m 25 100 1008
16 07:00 不定 1 8000m 26 89 1007 弱い雨
16 06:00 北西 2 6000m 25 94 1007
16 05:00 西南西 3 4600m 25 94 1007 強い雨
16 04:00 西南西 2 7000m 25 94 1007 弱い雨
16 03:00 西南西 2 10km以上 25 94 1007 弱い雨
16 02:00 西南西 3 9000m 25 94 1007 弱い雨
16 01:00 南西 3 10km以上 25 94 1007 弱い雨
16 00:00 南西 4 8000m 25 94 1008 弱い雨
15 23:00 西南西 2 8000m 26 89 1008 弱い雨
15 22:00 西南西 4 10km以上 26 89 1008
15 21:00 南西 2 10km以上 26 94 1008 弱い雨
15 20:00 西南西 3 9000m 26 94 1007 弱い雨
15 19:14 西南西 5 5000m 26 94 1007 弱い雨
15 19:04 西南西 5 3000m 26 94 1007
15 19:00 西南西 5 9000m 27 89 1007 弱い雨
15 18:05 西南西 4 7000m 27 89 1006 弱い雨
15 18:00 - - 5000m 26 94 1006
15 17:00 西南西 6 10km以上 28 84 1005
15 16:00 南西 4 10km以上 28 79 1006
15 15:00 南西 6 10km以上 29 74 1006 弱い雨
15 14:00 南西 6 10km以上 29 79 1006 弱い雨
15 13:00 南西 4 10km以上 28 79 1007 弱い雨
15 12:00 西南西 4 9000m 27 89 1008 弱い雨
15 11:00 西南西 7 5000m 25 94 1009
15 10:00 西南西 4 10km以上 29 79 1008
15 09:00 南西 3 10km以上 29 79 1009
15 08:00 南西 2 10km以上 27 84 1009 弱い雨
15 07:00 南西 2 10km以上 26 89 1009 弱いしゅう雨
15 06:00 不定 1 10km以上 26 89 1008
15 05:00 不定 1 10km以上 26 89 1007
15 04:00 不定 1 10km以上 26 89 1007
15 03:00 不定 1 10km以上 26 89 1007
15 02:00 不定 1 10km以上 26 89 1008
15 01:00 西南西 3 9000m 25 100 1008 弱い雨
15 00:00 西南西 2 9000m 26 94 1009 弱い雨
14 23:00 南西 1 10km以上 26 94 1009
14 22:00 静穏 0 10km以上 26 94 1009
14 21:00 2 9000m 26 94 1009 弱い雨
14 20:00 南西 2 10km以上 27 89 1009
14 19:00 南南西 2 10km以上 26 89 1008 弱い雨
14 18:35 南西 3 5000m 26 89 1008 弱い雨
14 18:00 西 5 10km以上 28 89 1007 弱いしゅう雨
14 17:00 西 5 10km以上 28 89 1007
14 16:00 北東 2 10km以上 28 84 1006
14 15:00 不定 2 10km以上 28 84 1006 弱い雨
14 14:00 南西 1 9000m 26 89 1006 弱いしゅう雨
14 13:07 南南西 6 4000m 26 89 1007 強い雷雨
14 12:00 西 4 10km以上 31 70 1007
RPLL 160200Z 26006KT 9000 -RA BKN020 OVC080 27/26 Q1007 NOSIG RMK A2974
RPLL 160100Z 26010KT 8000 -RA BKN020 OVC080 26/25 Q1008 NOSIGRMK A2977
RPLL 160000Z 25007KT 200V290 2500 RA BKN020 OVC090 25/25 Q1008 TEMPO 5000 RMK A2977
RPLL 152300Z VRB02KT 8000 -RA BKN020 OVC090 26/24 Q1007 NOSIG RMK A2974
RPLL 152200Z 31003KT 6000 RA BKN020 OVC090 25/24 Q1007 NOSIG RMK A2974
RPLL 152100Z 25005KT 4600 +RA BKN020 OVC090 25/24 Q1007 TEMPO 6000 RA RMK A2974
RPLL 152000Z 24004KT 7000 -RA SCT020 OVC090 25/24 Q1007 TEMPO 5000 RA RMK A2974
RPLL 151900Z 25004KT 9999 -RA SCT020 OVC090 25/24 Q1007 NOSIG RMK A2974
RPLL 151800Z 24006KT 9000 -RA SCT018 OVC100 25/24 Q1007 NOSIG RMK A2974
RPLL 151700Z 23006KT 200V270 9999 -RA SCT018 OVC090 25/24 Q1007 NOSIG RMK A2974
RPLL 151600Z 23007KT 200V260 8000 -RA SCT018 OVC090 25/24 Q1008 TEMPO 5000 RA RMK A2977
RPLL 151500Z 25004KT 210V280 8000 -RA SCT020 OVC090 26/24 Q1008 NOSIG RMK A2977
RPLL 151400Z 24007KT 9999 SCT023 OVC100 26/24 Q1008 RERA NOSIG RMK A2977
RPLL 151300Z 23004KT 200V270 9999 -RA SCT020 OVC090 26/25 Q1008 NOSIG RMK A2977
RPLL 151200Z 24005KT 210V270 9000 -RA SCT020 OVC090 26/25 Q1007 NOSIG RMK A2974
RPLL 151114Z 25009KT 210V280 5000 -RA BKN015 OVC080 26/25 Q1007 NOSIG RMK A2974
RPLL 151104Z 24010G20KT 210V280 3000 RA BKN015 OVC080 26/25 Q1007 TEMPO 7000 -RA RMK A2974
RPLL 151100Z 24010KT 200V270 9000 -RA BKN018 OVC080 27/25 Q1007 NOSIG RMK A2974
RPLL 151005Z 24007KT 210V270 7000 -RA BKN018 OVC080 27/25 Q1006 NOSIG RMK A2971
RPLL 151000Z 2507KT 5000 RA BKN020 OVC080 26/25 Q1006 TEMPO 8000 -RA RMK A2971
RPLL 150900Z 24011KT 9999 SCT023 BKN090 28/25 Q1005 RERA NOSIG RMK A2968
RPLL 150800Z 23008KT 200V260 9999 BKN020 OVC080 28/24 Q1006 RERA NOSIG RMK A2971
RPLL 150700Z 22012KT 9999 -RA SCT020 OVC080 29/24 Q1006 NOSIG RMK A2971
RPLL 150600Z 22012KT 9999 -RA BKN020 OVC080 29/25 Q1006 NOSIG RMK A2971
RPLL 150500Z 23008KT 200V260 9999 -RA SCT020 OVC080 28/24 Q1007 NOSIG RMK A2974
RPLL 150400Z 25007KT 220V280 9000 -RA SCT020 OVC080 27/25 Q1008 NOSIG RMK A2977
RPLL 150300Z 24013G24KT 210V270 5000 RA BKN018 OVC080 25/24 Q1009 TEMPO 7000 -RA RMK A2980
RPLL 150200Z 25008KT 200V280 9999 SCT022 OVC090 29/25 Q1008 NOSIG RMK A2977
RPLL 150100Z 22006KT 180V250 9999 SCT022 OVC090 29/25 Q1009 RERA NOSIG RMK A2980
RPLL 150000Z 22004KT 180V280 9999 -RA SCT022 OVC090 27/24 Q1009 NOSIG RMK A2980
RPLL 142300Z 22003KT 160V260 9999 -SHRA SCT023 OVC090 26/24 Q1009 NOSIG RMK A2980
RPLL 142200Z VRB02KT 9999 FEW015 SCT023 OVC090 26/24 Q1008 NOSIG RMK A2977
RPLL 142100Z VRB01KT 9999 BKN023 OVC090 26/24 Q1007 NOSIG RMK A2974
RPLL 142000Z VRB01KT 9999 SCT023 OVC090 26/24 Q1007 NOSIG RMK A2974
RPLL 141900Z VRB02KT 9999 FEW025 BKN090 26/24 Q1007 NOSIG RMK A2974
RPLL 141800Z VRB02KT 9999 SCT020 OVC090 26/24 Q1008 RERA NOSIG RMK A2977
RPLL 141700Z 25005KT 210V270 9000 -RA SCT020 OVC090 25/25 Q1008 NOSIG RMK A2977
RPLL 141600Z 25004KT 220V280 9000 -RA SCT020 BKN090 26/25 Q1009 NOSIG RMK A2980
RPLL 141500Z 23001KT 9999 SCT023 BKN090 26/25 Q1009 NOSIG RMK A2980
RPLL 141400Z 00000KT 9999 FEW023 BKN090 26/25 Q1009 RERA NOSIG RMK A2980
RPLL 141300Z 19003KT 140V230 9000 -RA SCT023 OVC090 26/25 Q1009 NOSIG RMK A2980
RPLL 141200Z 23004KT 200V260 9999 SCT023 BKN100 27/25 Q1009 RERA NOSIG RMK A2980
RPLL 141100Z 21004KT 180V240 9999 -RA SCT018 OVC090 26/24 Q1008 NOSIG RMK A2977
RPLL 141035Z 23006KT 200V260 5000 -RA BKN018 OVC080 26/24 Q1008 NOSIG RMK A2977
RPLL 141000Z 27009KT 9999 -SHRA FEW015CB SCT018 BKN090 28/26 Q1007 NOSIG RMK A2974 CB SE-S
RPLL 140900Z 26009KT 240V310 9999 FEW020CB SCT022 BKN100 28/26 Q1007 NOSIG RMK A2974 CB NE/SW
RPLL 140800Z 04003KT 320V110 9999 SCT020 BKN090 28/25 Q1006 RERA NOSIG RMK A2971
RPLL 140700Z VRB03KT 9999 -RA SCT023 BKN090 28/25 Q1006 NOSIG RMK A2971
RPLL 140600Z 22002KT 9000 -SHRA FEW020TCU SCT023 BKN090 26/24 Q1006 RETS NOSIG RMK A2971 TCU NE/SW
RPLL 140507Z 20011KT 170V250 4000 +TSRA SCT015CB BKN080 26/24 Q1007 TEMPO 1500 RMK A2974 CB OHD/S-SW
RPLL 140400Z 28007KT 240V320 9999 FEW023TCU SCT025 BKN090 31/25 Q1007 NOSIG RMK A2974 TCU N/NE